Time;durP1;ratioP1;P1;durP2;ratioP2;P2;SDS_P1;SDS_P2;PMS_P1;PMS_P2;Temp;Humidity;BMP_temperature;BMP_pressure;BME280_temperature;BME280_humidity;BME280_pressure;Samples;Min_cycle;Max_cycle;Signal;HPM_P1;HPM_P2
2022/05/11 00:00:26;;;;;;;2.67;2.47;;;24.80;34.10;;;23.10;35.07;100935.59;12244363;19;20023;-79
2022/05/11 00:04:27;;;;;;;2.85;2.65;;;24.80;34.10;;;23.04;34.82;100919.44;12241889;19;20010;-78
2022/05/11 00:08:29;;;;;;;2.63;2.42;;;24.80;34.10;;;23.11;35.00;100941.75;12248174;19;20003;-78
2022/05/11 00:12:31;;;;;;;2.55;2.35;;;24.70;34.10;;;23.14;35.20;100952.94;12243636;19;20025;-78
2022/05/11 00:16:34;;;;;;;5.22;3.58;;;24.80;34.20;;;23.06;35.38;100936.09;12245623;19;20010;-78
2022/05/11 00:20:37;;;;;;;2.92;2.70;;;24.80;34.30;;;23.08;35.27;100936.75;12245979;19;20657;-78
2022/05/11 00:24:39;;;;;;;3.47;2.45;;;24.70;34.20;;;22.93;35.04;100924.03;12241072;19;20015;-78
2022/05/11 00:28:40;;;;;;;2.92;2.60;;;24.70;34.40;;;23.04;35.45;100944.25;12246516;19;20031;-78
2022/05/11 00:32:42;;;;;;;3.17;2.80;;;24.70;34.40;;;22.99;35.55;100938.56;12239652;19;20078;-78
2022/05/11 00:36:45;;;;;;;6.47;2.65;;;25.00;34.60;;;22.89;35.61;100941.31;12244848;19;20014;-78
2022/05/11 00:40:52;;;;;;;3.05;2.75;;;24.60;34.50;;;22.89;35.70;100943.97;12241359;19;20011;-78
2022/05/11 00:44:54;;;;;;;2.75;2.53;;;24.60;34.60;;;22.79;35.89;100932.63;12240381;19;20357;-81
2022/05/11 00:53:24;;;;;;;2.83;2.63;;;24.50;35.10;;;22.81;36.12;100961.75;12238511;19;20094;-78
2022/05/11 00:57:38;;;;;;;4.13;2.80;;;24.50;35.20;;;22.63;36.53;100937.84;12243779;19;20074;-79
2022/05/11 01:01:41;;;;;;;3.08;2.75;;;24.40;35.40;;;22.62;36.25;100942.34;12229035;19;20015;-79
2022/05/11 01:05:46;;;;;;;2.67;2.47;;;24.30;35.30;;;22.60;36.41;100965.66;12240413;19;20015;-78
2022/05/11 01:09:47;;;;;;;3.47;3.17;;;24.30;35.50;;;22.38;36.79;100948.34;12237912;19;20015;-78
2022/05/11 01:13:49;;;;;;;5.72;3.13;;;24.10;35.70;;;22.34;36.90;100970.97;12238542;19;20123;-79
2022/05/11 01:17:52;;;;;;;3.30;2.65;;;24.10;35.90;;;22.20;37.42;100990.16;12239214;19;20029;-78
2022/05/11 01:22:40;;;;;;;2.92;2.25;;;23.80;36.10;;;22.02;37.59;100967.00;12235500;19;20404;-78
2022/05/11 01:26:41;;;;;;;4.75;2.90;;;23.90;36.30;;;22.02;37.95;101006.91;12241807;19;20018;-79
2022/05/11 01:30:49;;;;;;;2.65;2.42;;;23.80;36.70;;;21.95;38.09;101010.31;12241605;19;20031;-78
2022/05/11 01:35:18;;;;;;;3.22;2.95;;;23.60;36.90;;;21.87;38.09;101003.09;12236771;19;20013;-78
2022/05/11 01:39:20;;;;;;;2.75;2.55;;;23.60;37.20;;;21.56;38.21;100971.56;12239303;19;20023;-78
2022/05/11 01:43:27;;;;;;;3.22;2.92;;;23.60;37.20;;;21.60;38.90;100974.75;12238189;19;20503;-78
2022/05/11 01:47:28;;;;;;;2.40;2.20;;;23.40;37.60;;;21.46;38.52;100975.28;12229995;19;20011;-78
2022/05/11 01:51:30;;;;;;;3.45;2.38;;;23.20;37.30;;;21.34;38.60;100956.03;12235416;19;20245;-78
2022/05/11 01:55:33;;;;;;;3.70;2.72;;;23.20;37.60;;;21.27;39.02;100945.13;12240616;19;20423;-78
2022/05/11 01:59:34;;;;;;;3.20;2.63;;;23.00;37.50;;;21.20;39.20;100936.94;12242223;19;20431;-78
2022/05/11 02:03:36;;;;;;;2.38;2.10;;;23.00;37.80;;;21.14;39.16;100929.56;12238828;19;20565;-78
2022/05/11 02:07:49;;;;;;;6.38;2.50;;;23.00;38.00;;;21.17;39.18;100961.16;12239952;19;20018;-78
2022/05/11 02:11:51;;;;;;;3.05;2.28;;;22.90;38.10;;;21.16;39.25;100954.16;12235319;19;20023;-78
2022/05/11 02:15:52;;;;;;;6.70;2.50;;;22.90;38.10;;;21.11;39.40;100935.16;12240335;19;20021;-78
2022/05/11 02:19:54;;;;;;;3.88;2.45;;;22.80;38.30;;;20.93;39.53;100905.09;12239482;19;20021;-78
2022/05/11 02:23:56;;;;;;;2.25;2.05;;;22.70;38.40;;;20.95;39.49;100913.72;12235321;19;20034;-78
2022/05/11 02:27:58;;;;;;;2.78;2.42;;;22.80;38.30;;;20.88;39.72;100897.56;12239388;19;20373;-78
2022/05/11 02:32:02;;;;;;;2.65;2.45;;;22.70;38.50;;;20.92;39.83;100903.41;12235996;19;20385;-79
2022/05/11 02:36:04;;;;;;;4.13;2.92;;;22.70;38.60;;;20.97;39.95;100911.75;12238960;19;20025;-78
2022/05/11 02:40:06;;;;;;;2.72;2.20;;;22.70;38.70;;;20.92;40.10;100904.22;12239763;19;20024;-78
2022/05/11 02:44:09;;;;;;;2.47;2.28;;;22.70;38.80;;;20.89;40.19;100904.53;12235322;19;20029;-78
2022/05/11 02:48:16;;;;;;;2.63;2.42;;;22.70;38.80;;;20.93;40.24;100913.06;12238236;19;20018;-78
2022/05/11 02:52:18;;;;;;;2.63;2.40;;;22.50;38.80;;;20.92;40.33;100914.03;12230026;19;20069;-78
2022/05/11 02:56:20;;;;;;;2.28;2.10;;;22.70;38.90;;;20.80;40.41;100905.44;12235271;19;20014;-78
2022/05/11 03:00:21;;;;;;;2.55;2.35;;;22.60;38.90;;;20.80;40.69;100896.63;12236012;19;20078;-78
2022/05/11 03:04:24;;;;;;;7.38;2.30;;;22.60;38.80;;;20.79;40.54;100901.09;12232410;19;20092;-78
2022/05/11 03:08:26;;;;;;;2.20;1.95;;;22.60;38.80;;;20.95;40.67;100932.31;12234954;19;20021;-79
2022/05/11 03:12:27;;;;;;;2.30;2.10;;;22.60;38.90;;;20.96;40.57;100937.47;12232651;19;20078;-78
2022/05/11 03:16:29;;;;;;;3.33;2.30;;;22.60;39.10;;;20.99;40.63;100952.28;12234958;19;20010;-78
2022/05/11 03:20:31;;;;;;;7.20;2.05;;;22.50;39.00;;;20.92;40.54;100937.91;12234318;19;20015;-79
2022/05/11 03:24:32;;;;;;;4.20;2.15;;;22.60;39.10;;;21.00;40.83;100965.41;12232034;19;20044;-78
2022/05/11 03:28:34;;;;;;;3.28;2.03;;;22.70;39.10;;;20.95;40.47;100956.19;12234507;19;20018;-79
2022/05/11 03:36:56;;;;;;;2.53;2.33;;;22.60;39.20;;;21.06;40.90;100971.94;12233589;19;20591;-79
2022/05/11 03:40:58;;;;;;;4.28;2.47;;;22.70;39.30;;;20.99;40.77;100960.25;12233087;19;20026;-79
2022/05/11 03:45:24;;;;;;;2.17;1.98;;;22.80;39.40;;;21.04;40.85;100968.63;12229920;19;20696;-79
2022/05/11 03:49:27;;;;;;;2.00;1.77;;;22.80;39.50;;;21.10;41.01;100981.31;12232774;19;20035;-79
2022/05/11 03:53:30;;;;;;;6.65;2.17;;;22.80;39.50;;;20.99;40.78;100976.19;12231208;19;20493;-79
2022/05/11 03:57:33;;;;;;;2.58;2.38;;;22.70;39.50;;;20.93;41.53;100969.66;12233108;19;20338;-79
2022/05/11 04:01:36;;;;;;;2.78;1.95;;;22.70;39.70;;;20.88;41.66;100961.28;12228461;19;20104;-79
2022/05/11 04:05:37;;;;;;;3.92;2.30;;;22.70;39.80;;;20.87;41.46;100977.34;12237621;19;20033;-79
2022/05/11 04:09:39;;;;;;;3.13;2.85;;;22.70;39.60;;;20.70;41.39;100955.88;12235296;19;20743;-79
2022/05/11 04:13:41;;;;;;;3.83;2.28;;;22.60;39.90;;;20.67;41.48;100974.75;12234186;19;20054;-79
2022/05/11 04:17:44;;;;;;;2.97;2.40;;;22.40;39.80;;;20.85;41.86;101006.69;12234623;19;20011;-79
2022/05/11 04:21:46;;;;;;;5.80;2.78;;;22.80;40.20;;;20.83;41.86;100994.56;12225470;19;20039;-79
2022/05/11 04:25:47;;;;;;;3.70;2.10;;;22.60;40.40;;;20.82;42.13;101003.47;12240148;19;20463;-78
2022/05/11 04:29:49;;;;;;;3.45;2.40;;;22.60;40.50;;;20.75;42.32;101000.56;12225715;19;20755;-77
2022/05/11 04:33:50;;;;;;;5.88;2.58;;;22.70;40.50;;;20.57;42.16;100963.31;12227781;19;20131;-78
2022/05/11 04:37:52;;;;;;;3.95;2.58;;;22.50;40.70;;;20.31;42.51;100933.91;12236328;19;20035;-77
2022/05/11 04:41:53;;;;;;;3.08;2.10;;;22.70;40.90;;;20.63;42.31;100994.63;12233282;19;20090;-79
2022/05/11 04:45:56;;;;;;;3.25;2.63;;;22.30;40.70;;;20.58;42.64;100985.38;12240632;19;20614;-79
2022/05/11 04:49:58;;;;;;;4.15;2.50;;;22.40;41.10;;;20.34;42.80;100958.31;12237093;19;20018;-79
2022/05/11 04:53:59;;;;;;;4.32;2.65;;;22.40;41.30;;;20.62;43.22;101008.84;12232666;19;20010;-79
2022/05/11 04:58:02;;;;;;;3.33;2.60;;;22.40;41.30;;;20.20;42.89;100934.91;12239707;19;20019;-79
2022/05/11 05:02:04;;;;;;;4.72;2.53;;;22.40;41.40;;;20.63;43.22;101002.56;12236585;19;20042;-79
2022/05/11 05:06:06;;;;;;;4.03;2.38;;;22.30;41.30;;;20.65;43.09;101005.91;12239503;19;20034;-79
2022/05/11 05:10:12;;;;;;;3.20;2.70;;;22.30;41.70;;;20.55;43.61;100984.72;12236000;19;20549;-79
2022/05/11 05:14:13;;;;;;;4.25;2.97;;;22.30;42.10;;;20.69;43.30;101002.00;12235980;19;20199;-79
2022/05/11 05:18:15;;;;;;;3.63;3.10;;;22.30;41.80;;;20.58;43.43;100985.38;12236522;19;20037;-79
2022/05/11 05:22:17;;;;;;;3.80;2.47;;;22.30;41.80;;;20.54;43.58;100990.97;12235866;19;20022;-79
2022/05/11 05:26:19;;;;;;;3.78;2.92;;;22.30;41.90;;;20.69;43.51;101006.47;12236634;19;20029;-79
2022/05/11 05:34:45;;;;;;;3.65;2.80;;;22.70;42.10;;;20.63;43.71;101010.53;12235109;19;20018;-79
2022/05/11 05:38:47;;;;;;;4.10;2.60;;;22.30;42.00;;;20.50;43.61;100988.75;12232328;19;20535;-79
2022/05/11 05:42:48;;;;;;;4.63;3.05;;;22.30;42.10;;;20.40;43.71;100974.66;12234887;19;20051;-79
2022/05/11 05:46:50;;;;;;;11.10;2.40;;;22.10;42.00;;;20.49;43.79;101009.09;12236202;19;20070;-79
2022/05/11 05:50:53;;;;;;;4.15;2.90;;;22.30;42.10;;;20.31;44.50;100963.91;12237368;19;20039;-79
2022/05/11 05:54:57;;;;;;;4.15;2.50;;;22.20;42.40;;;20.33;44.21;100975.22;12231935;19;20050;-79
2022/05/11 05:59:05;;;;;;;8.75;2.75;;;22.00;42.20;;;20.31;44.37;100958.63;12237208;19;20010;-79
2022/05/11 06:03:07;;;;;;;2.70;2.50;;;22.30;42.60;;;20.43;44.11;100992.94;12234021;19;20010;-79
2022/05/11 06:07:11;;;;;;;3.35;2.55;;;22.20;42.40;;;20.11;44.22;100939.22;12235118;19;20031;-78
2022/05/11 06:11:13;;;;;;;3.10;2.80;;;22.20;42.40;;;20.50;44.54;101002.00;12234440;19;20078;-79
2022/05/11 06:15:14;;;;;;;4.88;2.65;;;22.20;42.70;;;20.51;44.45;100993.06;12234217;19;20014;-79
2022/05/11 06:19:16;;;;;;;2.72;2.45;;;22.20;42.70;;;20.52;44.66;100997.38;12236376;19;20011;-79
2022/05/11 06:23:19;;;;;;;2.60;2.40;;;22.20;42.60;;;20.41;44.59;100976.31;12229643;19;20018;-79
2022/05/11 06:27:25;;;;;;;4.57;2.50;;;22.30;43.00;;;20.33;45.03;100977.03;12232320;19;20043;-79
2022/05/11 06:31:27;;;;;;;3.33;2.90;;;22.30;42.90;;;20.46;44.47;101009.41;12237891;19;20019;-80
2022/05/11 06:35:29;;;;;;;3.15;2.85;;;22.30;42.90;;;20.37;44.83;100994.34;12231698;19;20023;-79
2022/05/11 06:39:31;;;;;;;3.25;2.67;;;22.30;43.30;;;20.43;45.30;101004.38;12234445;19;20018;-80
2022/05/11 06:43:32;;;;;;;4.57;3.20;;;22.20;43.60;;;20.55;45.32;101007.75;12231025;19;20014;-79
2022/05/11 06:47:34;;;;;;;2.80;2.60;;;22.30;43.90;;;20.49;45.30;100979.09;12232862;19;20010;-80
2022/05/11 06:51:36;;;;;;;6.55;2.88;;;22.30;43.80;;;20.44;45.26;100952.16;12232378;19;20029;-80
2022/05/11 07:00:05;;;;;;;3.05;2.65;;;22.30;44.50;;;20.45;45.65;100954.69;12230599;19;20102;-80
2022/05/11 07:04:07;;;;;;;5.15;2.83;;;22.30;44.50;;;20.39;45.62;100943.78;12232217;19;20027;-81
2022/05/11 07:08:09;;;;;;;4.13;2.95;;;22.30;44.40;;;20.48;46.06;100935.81;12232874;19;20030;-80
2022/05/11 07:12:17;;;;;;;2.70;2.47;;;22.30;44.40;;;20.57;45.81;100947.41;12231630;19;20562;-80
2022/05/11 07:16:19;;;;;;;3.58;2.65;;;22.30;44.10;;;20.39;45.89;100918.13;12231566;19;20456;-81
2022/05/11 07:20:27;;;;;;;3.00;2.63;;;22.30;44.10;;;20.66;46.41;100943.06;12230878;19;20006;-80
2022/05/11 07:24:29;;;;;;;3.92;2.60;;;22.30;44.30;;;20.76;45.90;100930.56;12227515;19;20019;-80
2022/05/11 07:28:31;;;;;;;4.13;3.22;;;22.20;44.00;;;20.83;46.06;100920.22;12229850;19;20011;-80
2022/05/11 07:32:32;;;;;;;3.40;2.85;;;22.50;44.20;;;21.02;45.85;100929.91;12230881;19;20018;-80
2022/05/11 07:36:34;;;;;;;3.75;3.03;;;22.60;43.90;;;21.04;45.53;100906.72;12228425;19;20018;-79
2022/05/11 07:40:35;;;;;;;3.33;3.03;;;22.60;43.70;;;21.08;45.81;100881.53;12234402;19;20027;-81
2022/05/11 07:44:37;;;;;;;2.92;2.70;;;22.70;43.90;;;21.03;45.94;100850.09;12239010;19;20015;-80
2022/05/11 07:48:39;;;;;;;3.30;3.00;;;22.90;43.70;;;21.51;45.56;100893.28;12242278;19;20021;-80
2022/05/11 07:52:46;;;;;;;3.17;2.85;;;23.00;43.50;;;21.71;45.37;100888.63;12239002;19;20022;-80
2022/05/11 08:01:08;;;;;;;3.10;2.85;;;23.30;43.30;;;21.98;45.32;100882.38;12240819;19;20018;-79
2022/05/11 08:05:13;;;;;;;3.08;2.85;;;23.50;43.00;;;22.17;44.96;100870.69;12238731;19;20024;-80
2022/05/11 08:09:15;;;;;;;3.78;3.40;;;23.60;42.90;;;22.37;44.73;100866.84;12243788;19;20039;-80
2022/05/11 08:13:17;;;;;;;3.00;2.80;;;23.80;42.50;;;22.59;44.80;100867.31;12242059;19;20082;-80
2022/05/11 08:17:34;;;;;;;3.67;3.38;;;23.90;42.80;;;22.74;44.89;100858.56;12240082;19;20093;-80
2022/05/11 08:21:36;;;;;;;4.95;3.10;;;24.20;42.40;;;22.97;44.47;100853.47;12234724;19;20011;-78
2022/05/11 08:25:40;;;;;;;4.00;3.13;;;24.40;42.50;;;23.21;44.52;100856.38;12236326;19;20031;-78
2022/05/11 08:34:02;;;;;;;3.60;3.30;;;24.70;42.20;;;23.56;44.02;100833.91;12237840;19;20764;-78
2022/05/11 08:38:05;;;;;;;3.65;3.38;;;24.90;41.60;;;23.82;43.75;100833.78;12241520;19;20011;-78
2022/05/11 08:42:08;;;;;;;6.53;3.10;;;25.10;41.40;;;24.08;43.80;100834.38;12236371;19;20022;-77
2022/05/11 08:46:47;;;;;;;5.60;4.10;;;25.60;41.50;;;24.29;43.56;100835.66;12214972;19;20622;-78
2022/05/11 08:50:49;;;;;;;3.85;3.55;;;25.60;40.60;;;24.33;43.42;100822.78;12236927;19;20117;-77
2022/05/11 08:55:37;;;;;;;3.40;3.10;;;25.70;40.60;;;24.59;42.99;100820.72;12225770;19;20014;-78
2022/05/11 08:59:39;;;;;;;6.10;3.47;;;26.00;40.40;;;24.87;42.71;100833.59;12226182;19;20370;-78
2022/05/11 09:03:44;;;;;;;3.65;3.45;;;26.10;40.30;;;25.06;42.77;100819.81;12222452;19;20468;-77
2022/05/11 09:07:48;;;;;;;5.10;3.38;;;26.40;40.10;;;25.17;42.50;100824.78;12228524;19;20491;-78
2022/05/11 09:11:54;;;;;;;3.92;3.60;;;26.50;39.70;;;25.23;42.04;100819.72;12224677;19;20555;-77
2022/05/11 09:16:03;;;;;;;4.53;4.13;;;26.50;39.50;;;25.27;42.01;100794.28;12228445;19;20026;-78
2022/05/11 09:20:20;;;;;;;4.30;3.90;;;26.80;39.30;;;25.36;41.94;100791.38;12226546;19;20037;-77
2022/05/11 09:24:44;;;;;;;4.05;3.75;;;26.90;39.40;;;25.55;41.77;100795.38;12226366;19;20017;-77
2022/05/11 09:28:46;;;;;;;7.25;4.30;;;27.00;39.60;;;25.62;41.80;100774.09;12221867;19;20094;-77
2022/05/11 09:32:47;;;;;;;4.60;4.18;;;27.10;39.50;;;26.02;41.88;100783.56;12224645;19;20018;-77
2022/05/11 09:36:59;;;;;;;5.30;4.80;;;27.30;39.40;;;26.25;41.32;100788.00;12236087;19;20007;-77
2022/05/11 09:41:13;;;;;;;4.78;4.47;;;27.40;39.10;;;26.38;41.16;100788.19;12234163;19;20022;-77
2022/05/11 09:45:40;;;;;;;5.07;4.68;;;27.70;38.80;;;26.45;40.63;100756.09;12233800;19;20018;-78
2022/05/11 09:49:42;;;;;;;4.70;4.30;;;27.80;38.60;;;26.68;40.93;100770.22;12234404;19;20875;-77
2022/05/11 09:54:33;;;;;;;4.68;4.28;;;28.00;38.40;;;26.69;40.27;100736.22;12235684;19;20380;-77
2022/05/11 09:58:34;;;;;;;5.78;5.28;;;28.10;38.30;;;26.90;40.18;100752.31;12233875;19;20010;-77
2022/05/11 10:02:48;;;;;;;4.85;4.45;;;28.30;38.20;;;26.99;39.82;100734.22;12226505;19;20127;-77
2022/05/11 10:06:52;;;;;;;5.13;4.63;;;28.40;38.20;;;27.10;39.73;100733.72;12236880;19;20019;-77
2022/05/11 10:11:16;;;;;;;4.82;4.18;;;28.40;37.80;;;27.22;39.89;100717.13;12236161;19;20085;-77
2022/05/11 10:24:31;;;;;;;4.63;3.28;;;28.90;37.50;;;27.78;39.04;100701.00;12234353;19;20018;-78
2022/05/11 10:29:06;;;;;;;4.63;3.10;;;29.00;37.20;;;27.81;39.15;100679.16;12237677;19;20496;-77
2022/05/11 10:34:00;;;;;;;3.30;3.00;;;29.20;37.20;;;28.13;38.93;100683.00;12237033;19;20476;-77
2022/05/11 10:38:01;;;;;;;3.38;3.17;;;29.40;37.50;;;28.36;38.36;100680.00;12233691;19;20023;-77
2022/05/11 10:42:34;;;;;;;5.68;3.10;;;29.60;36.80;;;28.64;38.15;100673.66;12235649;19;20022;-77
2022/05/11 10:46:38;;;;;;;2.85;2.60;;;29.80;36.50;;;28.84;38.13;100666.47;12234983;19;20631;-77
2022/05/11 10:51:06;;;;;;;3.03;2.78;;;30.10;36.40;;;29.00;37.58;100651.78;12236306;19;20726;-77
2022/05/11 10:55:44;;;;;;;3.53;2.97;;;30.40;36.50;;;29.16;37.51;100645.16;12231850;19;20338;-77
2022/05/11 11:00:14;;;;;;;3.00;2.30;;;30.40;35.70;;;29.27;36.96;100630.22;12234571;19;20021;-77
2022/05/11 11:04:59;;;;;;;3.00;2.70;;;30.60;35.80;;;29.41;36.93;100617.56;12230051;19;20022;-77
2022/05/11 11:09:28;;;;;;;4.15;2.35;;;30.80;35.50;;;29.42;36.98;100611.16;12233657;19;20029;-77
2022/05/11 11:13:49;;;;;;;3.10;2.65;;;30.90;35.20;;;29.55;36.83;100622.72;12229484;19;20010;-77
2022/05/11 11:17:51;;;;;;;2.55;2.45;;;31.10;35.10;;;29.55;36.62;100601.19;12230320;19;20014;-77
2022/05/11 11:21:53;;;;;;;2.85;2.65;;;31.00;34.70;;;29.64;36.10;100592.91;12231291;19;20666;-76
2022/05/11 11:26:11;;;;;;;4.03;2.40;;;31.10;34.50;;;29.87;35.94;100600.47;12231203;19;20023;-78
2022/05/11 11:30:13;;;;;;;2.90;2.70;;;31.20;34.70;;;30.03;35.76;100610.75;12232662;19;20043;-77
2022/05/11 11:34:20;;;;;;;2.53;2.40;;;31.30;34.50;;;29.91;35.47;100572.06;12232038;19;20018;-76
2022/05/11 11:38:28;;;;;;;2.83;2.58;;;31.40;34.30;;;30.17;35.18;100604.22;12231404;19;20021;-77
2022/05/11 11:42:40;;;;;;;2.83;2.50;;;31.50;34.70;;;30.26;34.84;100575.19;12229755;19;20372;-78
2022/05/11 11:46:45;;;;;;;5.43;2.50;;;31.60;33.60;;;30.47;34.83;100583.94;12228509;19;20030;-77
2022/05/11 11:50:59;;;;;;;2.67;2.17;;;31.70;34.10;;;30.56;34.39;100574.53;12228004;19;20456;-77
2022/05/11 11:55:01;;;;;;;2.90;2.70;;;31.80;33.50;;;30.46;34.26;100558.88;12225767;19;20035;-78
2022/05/11 11:59:09;;;;;;;10.60;2.42;;;31.90;33.00;;;30.52;34.35;100555.28;12231567;19;20018;-77
2022/05/11 12:03:23;;;;;;;2.35;2.03;;;31.90;33.00;;;30.57;33.99;100560.00;12226194;19;20019;-77
2022/05/11 12:16:21;;;;;;;4.10;2.25;;;32.00;32.80;;;30.64;33.49;100563.47;12228680;19;20031;-78
2022/05/11 12:20:23;;;;;;;3.17;1.90;;;32.00;32.50;;;30.73;32.96;100532.50;12229079;19;20010;-78
2022/05/11 12:24:36;;;;;;;4.47;2.03;;;32.00;32.30;;;30.57;32.93;100477.28;12228879;19;20070;-77
2022/05/11 12:28:44;;;;;;;2.40;2.00;;;32.20;32.40;;;30.98;32.89;100518.19;12240459;19;20472;-77
2022/05/11 12:33:04;;;;;;;1.95;1.73;;;32.30;32.20;;;31.18;32.36;100529.53;12235305;19;20014;-77
2022/05/11 12:37:39;;;;;;;2.35;1.98;;;32.40;32.30;;;31.23;32.33;100505.41;12240236;19;20464;-77
2022/05/11 12:41:43;;;;;;;2.00;1.73;;;32.50;31.90;;;31.41;31.88;100514.59;12237176;19;20015;-77
2022/05/11 12:45:46;;;;;;;8.73;2.10;;;32.60;31.50;;;31.46;31.97;100509.28;12240735;19;20476;-77
2022/05/11 12:49:48;;;;;;;2.17;1.98;;;32.70;31.70;;;31.40;31.90;100497.53;12241720;19;20293;-77
2022/05/11 12:53:58;;;;;;;2.47;2.10;;;32.80;31.30;;;31.48;31.25;100502.63;12237518;19;20026;-77
2022/05/11 12:58:01;;;;;;;5.82;1.90;;;32.80;30.80;;;31.37;31.00;100487.19;12236438;19;20022;-76
2022/05/11 13:02:32;;;;;;;4.90;1.80;;;32.90;30.80;;;31.38;31.08;100480.78;12230263;19;20014;-77
2022/05/11 13:06:43;;;;;;;2.00;1.90;;;32.90;31.10;;;31.53;30.92;100496.53;12238269;19;20018;-77
2022/05/11 13:10:47;;;;;;;3.80;2.15;;;32.90;30.80;;;31.42;30.83;100470.34;12239573;19;20018;-77
2022/05/11 13:14:56;;;;;;;2.55;1.83;;;32.90;30.80;;;31.37;31.09;100459.41;12232121;19;20472;-77
2022/05/11 13:19:33;;;;;;;3.92;2.03;;;32.80;30.70;;;31.37;30.78;100462.09;12237770;19;20011;-77
2022/05/11 13:23:54;;;;;;;5.03;2.17;;;32.80;30.20;;;31.46;30.39;100471.50;12232671;19;20827;-77
2022/05/11 13:28:10;;;;;;;3.42;1.83;;;32.80;30.40;;;31.57;30.39;100468.06;12238714;19;20452;-76
2022/05/11 13:32:11;;;;;;;;;;;32.90;30.40;;;31.65;31.00;100456.91;12228994;19;20014;-77
2022/05/11 13:36:37;;;;;;;1.73;1.50;;;32.90;32.00;;;31.64;30.38;100454.44;12223162;19;19927;-77
2022/05/11 13:40:53;;;;;;;4.05;1.50;;;33.00;30.40;;;31.58;30.09;100458.88;12210450;19;20021;-79
2022/05/11 13:45:05;;;;;;;1.95;1.77;;;33.00;30.60;;;31.37;30.25;100427.00;12220901;19;20297;-76
2022/05/11 13:49:34;;;;;;;1.98;1.77;;;32.90;30.40;;;31.52;30.12;100454.41;12217636;19;20537;-78
2022/05/11 13:53:37;;;;;;;2.28;1.85;;;32.90;30.80;;;31.26;29.95;100436.66;12220774;19;20022;-78
2022/05/11 13:57:41;;;;;;;3.70;2.53;;;32.90;30.40;;;30.71;29.98;100372.00;12216267;19;20247;-75
2022/05/11 14:01:47;;;;;;;4.00;1.90;;;32.80;30.10;;;31.04;29.80;100445.25;12221293;19;20498;-78
2022/05/11 14:05:49;;;;;;;2.10;1.90;;;32.70;30.10;;;30.86;29.83;100424.50;12220854;19;20399;-78
2022/05/11 14:09:51;;;;;;;2.97;1.70;;;32.60;30.20;;;30.86;29.94;100435.28;12220067;19;20021;-75
2022/05/11 14:13:53;;;;;;;2.00;1.90;;;32.70;30.20;;;30.81;29.87;100429.78;12222437;19;20010;-76
2022/05/11 14:17:55;;;;;;;1.73;1.63;;;32.50;30.40;;;30.74;29.63;100420.91;12221920;19;20085;-76
2022/05/11 14:21:56;;;;;;;2.20;2.00;;;32.30;30.10;;;30.62;29.90;100406.50;12220777;19;20039;-76
2022/05/11 14:25:58;;;;;;;3.47;1.75;;;32.30;30.40;;;30.69;29.94;100418.06;12219968;19;20500;-77
2022/05/11 14:29:59;;;;;;;3.38;1.73;;;32.20;30.40;;;30.81;29.99;100415.44;12218855;19;20341;-77
2022/05/11 14:34:01;;;;;;;2.33;2.10;;;32.30;30.50;;;30.93;29.80;100431.72;12217221;19;20484;-77
2022/05/11 14:38:04;;;;;;;2.28;1.75;;;32.20;30.50;;;31.01;29.71;100416.03;12219539;19;20014;-77
2022/05/11 14:42:05;;;;;;;2.33;1.70;;;32.30;30.40;;;31.07;29.75;100407.03;12213871;19;20018;-76
2022/05/11 14:46:20;;;;;;;2.10;1.88;;;32.30;30.30;;;31.02;29.33;100384.50;12217146;19;20043;-77
2022/05/11 14:50:23;;;;;;;2.33;1.73;;;32.40;30.20;;;31.14;29.65;100395.34;12213759;19;20066;-76
2022/05/11 14:54:25;;;;;;;1.77;1.67;;;32.40;30.20;;;31.15;29.32;100411.28;12218975;19;20057;-77
2022/05/11 15:02:47;;;;;;;1.63;1.52;;;32.50;30.10;;;31.12;29.52;100389.34;12216704;19;20006;-77
2022/05/11 15:06:49;;;;;;;1.85;1.55;;;32.40;30.00;;;31.12;29.36;100390.16;12221603;19;20360;-77
2022/05/11 15:13:30;;;;;;;4.55;1.85;;;32.50;30.10;;;31.15;29.37;100389.69;12221291;19;20014;-77
2022/05/11 15:15:15;;;;;;;3.33;1.83;;;32.50;30.00;;;31.10;29.16;100373.38;12217219;19;20014;-76
2022/05/11 15:19:16;;;;;;;;;;;32.50;30.10;;;31.02;29.74;100363.72;12213973;19;20518;-77
2022/05/11 15:23:18;;;;;;;1.52;1.42;;;32.50;30.90;;;31.13;29.33;100391.81;12220254;19;19926;-76
2022/05/11 15:27:20;;;;;;;3.03;1.65;;;32.40;30.00;;;31.00;29.11;100373.09;12220551;19;20010;-77
2022/05/11 15:31:22;;;;;;;1.85;1.75;;;32.50;30.00;;;30.88;29.06;100361.44;12215957;19;20018;-77
2022/05/11 15:35:26;;;;;;;2.15;1.70;;;32.40;29.80;;;30.88;29.11;100380.31;12216596;19;20027;-77
2022/05/11 15:39:28;;;;;;;3.83;1.83;;;32.30;29.90;;;30.90;28.94;100372.84;12217493;19;20026;-76
2022/05/11 15:43:30;;;;;;;1.95;1.63;;;32.30;29.80;;;30.81;29.06;100354.28;12211065;19;20333;-76
2022/05/11 15:47:34;;;;;;;2.08;1.88;;;32.40;29.90;;;30.81;28.65;100366.91;12212024;19;20011;-78
2022/05/11 15:51:40;;;;;;;2.38;1.73;;;32.20;29.90;;;30.86;28.70;100383.25;12215497;19;20401;-78
2022/05/11 15:55:42;;;;;;;3.58;2.38;;;32.20;29.80;;;30.61;28.74;100348.28;12210257;19;20022;-77
2022/05/11 15:59:47;;;;;;;3.20;1.73;;;32.40;29.90;;;30.78;28.58;100378.94;12213586;19;20441;-76
2022/05/11 16:03:49;;;;;;;3.92;2.13;;;32.20;29.90;;;30.78;29.00;100370.03;12220990;19;20103;-76
2022/05/11 16:07:54;;;;;;;6.82;1.88;;;32.10;29.90;;;30.79;28.65;100363.59;12226823;19;20022;-76
2022/05/11 16:11:56;;;;;;;1.98;1.55;;;32.10;29.90;;;30.65;28.89;100344.09;12228655;19;20089;-77
2022/05/11 16:15:59;;;;;;;3.25;1.70;;;32.10;30.00;;;30.68;28.70;100351.72;12226897;19;20043;-77
2022/05/11 16:20:01;;;;;;;3.03;1.80;;;32.00;29.80;;;30.76;28.59;100353.25;12224296;19;20024;-77
2022/05/11 16:24:04;;;;;;;1.67;1.58;;;32.20;29.80;;;30.65;28.55;100331.44;12223529;19;20022;-77
2022/05/11 16:28:06;;;;;;;1.48;1.38;;;32.10;29.90;;;30.71;28.65;100332.38;12225959;19;20018;-77
2022/05/11 16:32:08;;;;;;;2.00;1.65;;;32.10;29.80;;;30.75;28.47;100336.25;12227781;19;20027;-77
2022/05/11 16:36:10;;;;;;;3.00;1.80;;;32.10;29.80;;;30.72;28.48;100335.91;12227401;19;20509;-76
2022/05/11 16:40:13;;;;;;;5.13;1.50;;;32.00;29.80;;;30.64;28.60;100334.34;12227234;19;20018;-76
2022/05/11 16:44:15;;;;;;;1.73;1.42;;;32.10;29.70;;;30.58;28.31;100329.84;12227978;19;20039;-76
2022/05/11 16:48:19;;;;;;;1.80;1.70;;;31.90;29.60;;;30.43;28.38;100311.34;12226809;19;20745;-76
2022/05/11 16:52:23;;;;;;;2.28;1.63;;;32.00;29.80;;;30.48;28.50;100322.28;12225011;19;20047;-76
2022/05/11 16:56:25;;;;;;;3.77;1.57;;;32.00;29.90;;;30.53;28.55;100335.91;12224246;19;20014;-77
2022/05/11 17:00:26;;;;;;;3.75;1.60;;;31.80;29.80;;;30.37;28.83;100323.03;12228316;19;20290;-77
2022/05/11 17:04:29;;;;;;;3.28;1.52;;;31.90;29.80;;;30.35;28.70;100335.91;12221695;19;20174;-77
2022/05/11 17:08:30;;;;;;;1.98;1.55;;;31.70;29.80;;;30.23;28.35;100332.34;12225939;19;20463;-76
2022/05/11 17:12:33;;;;;;;2.15;1.80;;;31.70;29.90;;;30.17;28.67;100320.56;12224666;19;20022;-77
2022/05/11 17:16:35;;;;;;;2.95;1.67;;;31.60;29.90;;;30.13;28.82;100322.03;12226620;19;20458;-77
2022/05/11 17:20:40;;;;;;;2.30;1.83;;;31.50;29.90;;;30.03;28.51;100321.72;12224472;19;20091;-76
2022/05/11 17:24:42;;;;;;;2.85;1.90;;;31.50;29.90;;;29.91;28.98;100305.47;12225204;19;20015;-78
2022/05/11 17:28:43;;;;;;;3.78;1.83;;;31.30;30.00;;;29.90;28.73;100318.13;12227718;19;20015;-76
2022/05/11 17:32:46;;;;;;;2.05;1.80;;;31.40;29.90;;;29.89;29.00;100316.47;12226229;19;20076;-77
2022/05/11 17:36:49;;;;;;;1.30;1.30;;;31.30;30.00;;;29.68;29.00;100289.97;12226537;19;20048;-77
2022/05/11 17:40:51;;;;;;;6.63;1.48;;;31.20;30.00;;;29.70;28.92;100307.53;12222826;19;20053;-77